sensor_id;sensor_type;location;lat;lon;timestamp;temperature;humidity
2995;DHT22;35277;49.890;8.222;2023-11-21T00:00:57;22.40;71.70
2995;DHT22;35277;49.890;8.222;2023-11-21T00:03:25;22.40;71.70
2995;DHT22;35277;49.890;8.222;2023-11-21T00:05:54;22.40;71.70
2995;DHT22;35277;49.890;8.222;2023-11-21T00:08:22;22.40;71.70
2995;DHT22;35277;49.890;8.222;2023-11-21T00:10:50;22.40;72.50
2995;DHT22;35277;49.890;8.222;2023-11-21T00:13:18;22.40;71.70
2995;DHT22;35277;49.890;8.222;2023-11-21T00:15:46;22.40;71.70
2995;DHT22;35277;49.890;8.222;2023-11-21T00:18:15;22.40;71.70
2995;DHT22;35277;49.890;8.222;2023-11-21T00:20:44;22.40;71.70
2995;DHT22;35277;49.890;8.222;2023-11-21T00:23:12;22.40;71.70
2995;DHT22;35277;49.890;8.222;2023-11-21T00:25:39;22.40;71.70
2995;DHT22;35277;49.890;8.222;2023-11-21T00:28:07;22.40;71.70
2995;DHT22;35277;49.890;8.222;2023-11-21T00:30:35;22.40;71.70
2995;DHT22;35277;49.890;8.222;2023-11-21T00:33:03;22.40;71.70
2995;DHT22;35277;49.890;8.222;2023-11-21T00:35:32;22.40;71.70
2995;DHT22;35277;49.890;8.222;2023-11-21T00:38:00;22.40;71.70
2995;DHT22;35277;49.890;8.222;2023-11-21T00:40:28;22.40;71.70
2995;DHT22;35277;49.890;8.222;2023-11-21T00:42:56;22.40;71.70
2995;DHT22;35277;49.890;8.222;2023-11-21T00:45:24;22.40;71.70
2995;DHT22;35277;49.890;8.222;2023-11-21T00:47:52;22.40;71.70
2995;DHT22;35277;49.890;8.222;2023-11-21T00:50:21;22.40;71.70
2995;DHT22;35277;49.890;8.222;2023-11-21T00:52:50;22.40;71.80
2995;DHT22;35277;49.890;8.222;2023-11-21T00:55:19;22.40;71.70
2995;DHT22;35277;49.890;8.222;2023-11-21T00:57:47;22.40;71.80
2995;DHT22;35277;49.890;8.222;2023-11-21T01:00:16;22.40;71.80
2995;DHT22;35277;49.890;8.222;2023-11-21T01:02:44;22.40;71.80
2995;DHT22;35277;49.890;8.222;2023-11-21T01:05:11;22.40;71.80
2995;DHT22;35277;49.890;8.222;2023-11-21T01:07:39;22.40;71.80
2995;DHT22;35277;49.890;8.222;2023-11-21T01:10:09;22.40;71.80
2995;DHT22;35277;49.890;8.222;2023-11-21T01:12:37;22.40;71.80
2995;DHT22;35277;49.890;8.222;2023-11-21T01:15:06;22.40;71.80
2995;DHT22;35277;49.890;8.222;2023-11-21T01:17:35;22.40;71.80
2995;DHT22;35277;49.890;8.222;2023-11-21T01:20:04;22.40;71.80
2995;DHT22;35277;49.890;8.222;2023-11-21T01:22:37;22.40;71.80
2995;DHT22;35277;49.890;8.222;2023-11-21T01:25:06;22.40;71.80
2995;DHT22;35277;49.890;8.222;2023-11-21T01:27:35;22.40;71.80
2995;DHT22;35277;49.890;8.222;2023-11-21T01:30:05;22.40;71.80
2995;DHT22;35277;49.890;8.222;2023-11-21T01:32:34;22.40;71.80
2995;DHT22;35277;49.890;8.222;2023-11-21T01:35:03;22.40;71.80
2995;DHT22;35277;49.890;8.222;2023-11-21T01:37:32;22.40;71.80
2995;DHT22;35277;49.890;8.222;2023-11-21T01:40:00;22.40;71.80
2995;DHT22;35277;49.890;8.222;2023-11-21T01:42:31;22.40;71.80
2995;DHT22;35277;49.890;8.222;2023-11-21T01:45:03;22.40;71.80
2995;DHT22;35277;49.890;8.222;2023-11-21T01:47:32;22.40;71.80
2995;DHT22;35277;49.890;8.222;2023-11-21T01:50:00;22.40;71.80
2995;DHT22;35277;49.890;8.222;2023-11-21T01:52:31;22.40;71.80
2995;DHT22;35277;49.890;8.222;2023-11-21T01:54:59;22.40;71.90
2995;DHT22;35277;49.890;8.222;2023-11-21T01:57:28;22.40;71.80
2995;DHT22;35277;49.890;8.222;2023-11-21T01:59:57;22.40;71.90
2995;DHT22;35277;49.890;8.222;2023-11-21T02:02:27;22.40;71.90
2995;DHT22;35277;49.890;8.222;2023-11-21T02:04:55;22.40;71.90
2995;DHT22;35277;49.890;8.222;2023-11-21T02:07:23;22.40;71.90
2995;DHT22;35277;49.890;8.222;2023-11-21T02:09:51;22.40;71.90
2995;DHT22;35277;49.890;8.222;2023-11-21T02:12:19;22.40;71.90
2995;DHT22;35277;49.890;8.222;2023-11-21T02:14:47;22.40;71.90
2995;DHT22;35277;49.890;8.222;2023-11-21T02:17:15;22.40;71.90
2995;DHT22;35277;49.890;8.222;2023-11-21T02:19:46;22.40;71.90
2995;DHT22;35277;49.890;8.222;2023-11-21T02:22:15;22.40;71.90
2995;DHT22;35277;49.890;8.222;2023-11-21T02:24:46;22.40;72.00
2995;DHT22;35277;49.890;8.222;2023-11-21T02:27:13;22.40;71.90
2995;DHT22;35277;49.890;8.222;2023-11-21T02:29:47;22.40;72.00
2995;DHT22;35277;49.890;8.222;2023-11-21T02:32:15;22.40;71.90
2995;DHT22;35277;49.890;8.222;2023-11-21T02:34:45;22.40;71.90
2995;DHT22;35277;49.890;8.222;2023-11-21T02:37:13;22.40;71.90
2995;DHT22;35277;49.890;8.222;2023-11-21T02:39:41;22.40;72.00
2995;DHT22;35277;49.890;8.222;2023-11-21T02:42:10;22.40;72.00
2995;DHT22;35277;49.890;8.222;2023-11-21T02:44:38;22.40;72.00
2995;DHT22;35277;49.890;8.222;2023-11-21T02:47:07;22.40;72.00
2995;DHT22;35277;49.890;8.222;2023-11-21T02:49:35;22.40;72.00
2995;DHT22;35277;49.890;8.222;2023-11-21T02:52:04;22.40;72.00
2995;DHT22;35277;49.890;8.222;2023-11-21T02:54:31;22.40;72.00
2995;DHT22;35277;49.890;8.222;2023-11-21T02:57:03;22.40;72.00
2995;DHT22;35277;49.890;8.222;2023-11-21T02:59:31;22.40;72.00
2995;DHT22;35277;49.890;8.222;2023-11-21T03:01:59;22.40;72.00
2995;DHT22;35277;49.890;8.222;2023-11-21T03:04:27;22.40;72.00
2995;DHT22;35277;49.890;8.222;2023-11-21T03:06:55;22.40;72.00
2995;DHT22;35277;49.890;8.222;2023-11-21T03:09:22;22.40;72.00
2995;DHT22;35277;49.890;8.222;2023-11-21T03:11:50;22.40;72.00
2995;DHT22;35277;49.890;8.222;2023-11-21T03:14:18;22.40;72.00
2995;DHT22;35277;49.890;8.222;2023-11-21T03:16:48;22.40;72.10
2995;DHT22;35277;49.890;8.222;2023-11-21T03:19:16;22.40;72.10
2995;DHT22;35277;49.890;8.222;2023-11-21T03:21:44;22.40;72.10
2995;DHT22;35277;49.890;8.222;2023-11-21T03:24:11;22.40;72.10
2995;DHT22;35277;49.890;8.222;2023-11-21T03:26:39;22.40;72.10
2995;DHT22;35277;49.890;8.222;2023-11-21T03:29:07;22.40;72.10
2995;DHT22;35277;49.890;8.222;2023-11-21T03:31:35;22.40;72.10
2995;DHT22;35277;49.890;8.222;2023-11-21T03:34:04;22.40;72.10
2995;DHT22;35277;49.890;8.222;2023-11-21T03:36:33;22.40;72.10
2995;DHT22;35277;49.890;8.222;2023-11-21T03:39:00;22.40;72.10
2995;DHT22;35277;49.890;8.222;2023-11-21T03:41:28;22.40;72.10
2995;DHT22;35277;49.890;8.222;2023-11-21T03:43:56;22.40;72.20
2995;DHT22;35277;49.890;8.222;2023-11-21T03:46:24;22.40;72.20
2995;DHT22;35277;49.890;8.222;2023-11-21T03:48:52;22.40;72.10
2995;DHT22;35277;49.890;8.222;2023-11-21T03:51:22;22.40;72.20
2995;DHT22;35277;49.890;8.222;2023-11-21T03:53:50;22.40;72.20
2995;DHT22;35277;49.890;8.222;2023-11-21T03:56:18;22.40;72.20
2995;DHT22;35277;49.890;8.222;2023-11-21T03:58:46;22.40;72.20
2995;DHT22;35277;49.890;8.222;2023-11-21T04:01:19;22.40;72.20
2995;DHT22;35277;49.890;8.222;2023-11-21T04:03:48;22.40;72.20
2995;DHT22;35277;49.890;8.222;2023-11-21T04:06:16;22.40;72.20
2995;DHT22;35277;49.890;8.222;2023-11-21T04:08:46;22.40;72.30
2995;DHT22;35277;49.890;8.222;2023-11-21T04:11:14;22.40;72.20
2995;DHT22;35277;49.890;8.222;2023-11-21T04:13:42;22.40;72.20
2995;DHT22;35277;49.890;8.222;2023-11-21T04:16:11;22.40;72.20
2995;DHT22;35277;49.890;8.222;2023-11-21T04:18:39;22.40;72.20
2995;DHT22;35277;49.890;8.222;2023-11-21T04:21:07;22.40;72.20
2995;DHT22;35277;49.890;8.222;2023-11-21T04:23:35;22.40;72.20
2995;DHT22;35277;49.890;8.222;2023-11-21T04:26:04;22.40;72.20
2995;DHT22;35277;49.890;8.222;2023-11-21T04:28:33;22.40;73.10
2995;DHT22;35277;49.890;8.222;2023-11-21T04:31:01;22.40;72.20
2995;DHT22;35277;49.890;8.222;2023-11-21T04:33:29;22.40;72.30
2995;DHT22;35277;49.890;8.222;2023-11-21T04:35:58;22.40;72.20
2995;DHT22;35277;49.890;8.222;2023-11-21T04:38:25;22.40;72.20
2995;DHT22;35277;49.890;8.222;2023-11-21T04:40:53;22.40;72.30
2995;DHT22;35277;49.890;8.222;2023-11-21T04:43:22;22.40;72.30
2995;DHT22;35277;49.890;8.222;2023-11-21T04:45:50;22.40;72.30
2995;DHT22;35277;49.890;8.222;2023-11-21T04:48:18;22.40;72.30
2995;DHT22;35277;49.890;8.222;2023-11-21T04:50:46;22.40;72.30
2995;DHT22;35277;49.890;8.222;2023-11-21T04:53:14;22.40;72.30
2995;DHT22;35277;49.890;8.222;2023-11-21T04:55:42;22.40;72.30
2995;DHT22;35277;49.890;8.222;2023-11-21T04:58:10;22.40;72.30
2995;DHT22;35277;49.890;8.222;2023-11-21T05:00:40;22.40;72.30
2995;DHT22;35277;49.890;8.222;2023-11-21T05:03:09;22.40;72.30
2995;DHT22;35277;49.890;8.222;2023-11-21T05:05:37;22.40;72.30
2995;DHT22;35277;49.890;8.222;2023-11-21T05:08:05;22.40;72.30
2995;DHT22;35277;49.890;8.222;2023-11-21T05:10:32;22.40;72.30
2995;DHT22;35277;49.890;8.222;2023-11-21T05:13:00;22.40;72.30
2995;DHT22;35277;49.890;8.222;2023-11-21T05:15:28;22.40;72.30
2995;DHT22;35277;49.890;8.222;2023-11-21T05:17:57;22.40;72.20
2995;DHT22;35277;49.890;8.222;2023-11-21T05:20:27;22.40;72.20
2995;DHT22;35277;49.890;8.222;2023-11-21T05:22:55;22.40;72.20
2995;DHT22;35277;49.890;8.222;2023-11-21T05:25:23;22.40;72.20
2995;DHT22;35277;49.890;8.222;2023-11-21T05:27:51;22.40;72.20
2995;DHT22;35277;49.890;8.222;2023-11-21T05:30:21;22.40;72.10
2995;DHT22;35277;49.890;8.222;2023-11-21T05:32:49;22.40;72.20
2995;DHT22;35277;49.890;8.222;2023-11-21T05:35:19;22.40;72.20
2995;DHT22;35277;49.890;8.222;2023-11-21T05:37:47;22.40;72.20
2995;DHT22;35277;49.890;8.222;2023-11-21T05:40:15;22.40;72.20
2995;DHT22;35277;49.890;8.222;2023-11-21T05:42:44;22.40;72.20
2995;DHT22;35277;49.890;8.222;2023-11-21T05:45:12;22.40;72.20
2995;DHT22;35277;49.890;8.222;2023-11-21T05:47:41;22.40;72.20
2995;DHT22;35277;49.890;8.222;2023-11-21T05:50:10;22.40;72.20
2995;DHT22;35277;49.890;8.222;2023-11-21T05:52:41;22.40;72.70
2995;DHT22;35277;49.890;8.222;2023-11-21T05:55:09;22.40;73.20
2995;DHT22;35277;49.890;8.222;2023-11-21T05:57:38;22.40;73.10
2995;DHT22;35277;49.890;8.222;2023-11-21T06:00:08;22.40;73.10
2995;DHT22;35277;49.890;8.222;2023-11-21T06:02:41;22.40;73.00
2995;DHT22;35277;49.890;8.222;2023-11-21T06:05:10;22.40;73.00
2995;DHT22;35277;49.890;8.222;2023-11-21T06:07:39;22.40;72.90
2995;DHT22;35277;49.890;8.222;2023-11-21T06:10:08;22.40;72.90
2995;DHT22;35277;49.890;8.222;2023-11-21T06:12:38;22.40;72.90
2995;DHT22;35277;49.890;8.222;2023-11-21T06:15:08;22.40;72.80
2995;DHT22;35277;49.890;8.222;2023-11-21T06:17:36;22.40;72.90
2995;DHT22;35277;49.890;8.222;2023-11-21T06:20:05;22.40;72.90
2995;DHT22;35277;49.890;8.222;2023-11-21T06:22:36;22.40;73.80
2995;DHT22;35277;49.890;8.222;2023-11-21T06:25:07;22.40;73.00
2995;DHT22;35277;49.890;8.222;2023-11-21T06:27:38;22.40;73.00
2995;DHT22;35277;49.890;8.222;2023-11-21T06:30:07;22.40;73.00
2995;DHT22;35277;49.890;8.222;2023-11-21T06:32:36;22.40;73.00
2995;DHT22;35277;49.890;8.222;2023-11-21T06:35:05;22.40;73.10
2995;DHT22;35277;49.890;8.222;2023-11-21T06:37:33;22.40;73.10
2995;DHT22;35277;49.890;8.222;2023-11-21T06:40:02;22.40;73.00
2995;DHT22;35277;49.890;8.222;2023-11-21T06:42:32;22.40;73.00
2995;DHT22;35277;49.890;8.222;2023-11-21T06:45:01;22.40;73.00
2995;DHT22;35277;49.890;8.222;2023-11-21T06:47:30;22.40;72.90
2995;DHT22;35277;49.890;8.222;2023-11-21T06:49:59;22.40;72.90
2995;DHT22;35277;49.890;8.222;2023-11-21T06:52:27;22.40;72.90
2995;DHT22;35277;49.890;8.222;2023-11-21T06:54:55;22.50;72.90
2995;DHT22;35277;49.890;8.222;2023-11-21T06:57:23;22.40;73.60
2995;DHT22;35277;49.890;8.222;2023-11-21T06:59:52;22.40;72.70
2995;DHT22;35277;49.890;8.222;2023-11-21T07:02:20;22.40;72.70
2995;DHT22;35277;49.890;8.222;2023-11-21T07:04:48;22.40;72.60
2995;DHT22;35277;49.890;8.222;2023-11-21T07:07:15;22.40;72.60
2995;DHT22;35277;49.890;8.222;2023-11-21T07:09:43;22.40;72.60
2995;DHT22;35277;49.890;8.222;2023-11-21T07:12:11;22.40;72.60
2995;DHT22;35277;49.890;8.222;2023-11-21T07:14:39;22.40;72.50
2995;DHT22;35277;49.890;8.222;2023-11-21T07:17:11;22.40;72.50
2995;DHT22;35277;49.890;8.222;2023-11-21T07:19:39;22.40;72.50
2995;DHT22;35277;49.890;8.222;2023-11-21T07:22:08;22.40;72.40
2995;DHT22;35277;49.890;8.222;2023-11-21T07:24:36;22.40;72.40
2995;DHT22;35277;49.890;8.222;2023-11-21T07:27:04;22.40;72.40
2995;DHT22;35277;49.890;8.222;2023-11-21T07:29:32;22.40;72.40
2995;DHT22;35277;49.890;8.222;2023-11-21T07:32:00;22.40;72.40
2995;DHT22;35277;49.890;8.222;2023-11-21T07:34:30;22.40;72.30
2995;DHT22;35277;49.890;8.222;2023-11-21T07:36:57;22.40;72.30
2995;DHT22;35277;49.890;8.222;2023-11-21T07:39:25;22.40;72.40
2995;DHT22;35277;49.890;8.222;2023-11-21T07:41:53;22.40;72.40
2995;DHT22;35277;49.890;8.222;2023-11-21T07:44:21;22.40;72.30
2995;DHT22;35277;49.890;8.222;2023-11-21T07:46:49;22.40;72.30
2995;DHT22;35277;49.890;8.222;2023-11-21T07:49:17;22.40;72.30
2995;DHT22;35277;49.890;8.222;2023-11-21T07:51:48;22.40;72.30
2995;DHT22;35277;49.890;8.222;2023-11-21T07:54:16;22.40;72.40
2995;DHT22;35277;49.890;8.222;2023-11-21T07:56:44;22.40;72.30
2995;DHT22;35277;49.890;8.222;2023-11-21T07:59:12;22.40;72.30
2995;DHT22;35277;49.890;8.222;2023-11-21T08:01:40;22.40;72.40
2995;DHT22;35277;49.890;8.222;2023-11-21T08:04:10;22.50;72.40
2995;DHT22;35277;49.890;8.222;2023-11-21T08:06:37;22.40;72.30
2995;DHT22;35277;49.890;8.222;2023-11-21T08:09:07;22.50;72.80
2995;DHT22;35277;49.890;8.222;2023-11-21T08:11:35;22.50;73.30
2995;DHT22;35277;49.890;8.222;2023-11-21T08:14:05;22.50;73.70
2995;DHT22;35277;49.890;8.222;2023-11-21T08:16:33;22.50;73.90
2995;DHT22;35277;49.890;8.222;2023-11-21T08:19:01;22.50;74.10
2995;DHT22;35277;49.890;8.222;2023-11-21T08:21:29;22.50;74.20
2995;DHT22;35277;49.890;8.222;2023-11-21T08:23:57;22.50;74.30
2995;DHT22;35277;49.890;8.222;2023-11-21T08:26:28;22.50;74.30
2995;DHT22;35277;49.890;8.222;2023-11-21T08:28:56;22.50;74.40
2995;DHT22;35277;49.890;8.222;2023-11-21T08:31:25;22.50;74.50
2995;DHT22;35277;49.890;8.222;2023-11-21T08:33:52;22.50;74.50
2995;DHT22;35277;49.890;8.222;2023-11-21T08:36:22;22.50;74.50
2995;DHT22;35277;49.890;8.222;2023-11-21T08:38:51;22.50;74.50
2995;DHT22;35277;49.890;8.222;2023-11-21T08:41:19;22.50;74.40
2995;DHT22;35277;49.890;8.222;2023-11-21T08:43:50;22.50;74.40
2995;DHT22;35277;49.890;8.222;2023-11-21T08:46:18;22.50;74.40
2995;DHT22;35277;49.890;8.222;2023-11-21T08:48:47;22.50;74.40
2995;DHT22;35277;49.890;8.222;2023-11-21T08:51:15;22.50;74.30
2995;DHT22;35277;49.890;8.222;2023-11-21T08:53:43;22.50;74.30
2995;DHT22;35277;49.890;8.222;2023-11-21T08:56:12;22.50;74.70
2995;DHT22;35277;49.890;8.222;2023-11-21T08:58:40;22.50;74.30
2995;DHT22;35277;49.890;8.222;2023-11-21T09:01:10;22.50;74.30
2995;DHT22;35277;49.890;8.222;2023-11-21T09:03:38;22.50;74.30
2995;DHT22;35277;49.890;8.222;2023-11-21T09:06:07;22.50;74.20
2995;DHT22;35277;49.890;8.222;2023-11-21T09:08:36;22.50;74.20
2995;DHT22;35277;49.890;8.222;2023-11-21T09:11:04;22.50;74.10
2995;DHT22;35277;49.890;8.222;2023-11-21T09:13:32;22.50;74.10
2995;DHT22;35277;49.890;8.222;2023-11-21T09:16:01;22.50;74.00
2995;DHT22;35277;49.890;8.222;2023-11-21T09:18:30;22.50;74.00
2995;DHT22;35277;49.890;8.222;2023-11-21T09:20:58;22.50;74.00
2995;DHT22;35277;49.890;8.222;2023-11-21T09:23:26;22.50;73.90
2995;DHT22;35277;49.890;8.222;2023-11-21T09:25:53;22.50;73.90
2995;DHT22;35277;49.890;8.222;2023-11-21T09:28:23;22.50;73.80
2995;DHT22;35277;49.890;8.222;2023-11-21T09:30:51;22.50;73.70
2995;DHT22;35277;49.890;8.222;2023-11-21T09:33:19;22.50;73.70
2995;DHT22;35277;49.890;8.222;2023-11-21T09:35:50;22.50;73.60
2995;DHT22;35277;49.890;8.222;2023-11-21T09:38:18;22.50;73.50
2995;DHT22;35277;49.890;8.222;2023-11-21T09:40:46;22.50;73.50
2995;DHT22;35277;49.890;8.222;2023-11-21T09:43:16;22.50;73.70
2995;DHT22;35277;49.890;8.222;2023-11-21T09:45:46;22.50;74.20
2995;DHT22;35277;49.890;8.222;2023-11-21T09:48:15;22.50;74.70
2995;DHT22;35277;49.890;8.222;2023-11-21T09:50:45;22.50;75.10
2995;DHT22;35277;49.890;8.222;2023-11-21T09:53:20;22.50;75.60
2995;DHT22;35277;49.890;8.222;2023-11-21T09:55:51;22.50;76.00
2995;DHT22;35277;49.890;8.222;2023-11-21T09:58:19;22.50;76.50
2995;DHT22;35277;49.890;8.222;2023-11-21T10:00:50;22.50;76.80
2995;DHT22;35277;49.890;8.222;2023-11-21T10:03:20;22.50;76.90
2995;DHT22;35277;49.890;8.222;2023-11-21T10:05:50;22.60;76.90
2995;DHT22;35277;49.890;8.222;2023-11-21T10:08:22;22.60;76.70
2995;DHT22;35277;49.890;8.222;2023-11-21T10:10:59;22.60;76.50
2995;DHT22;35277;49.890;8.222;2023-11-21T10:13:28;22.60;76.30
2995;DHT22;35277;49.890;8.222;2023-11-21T10:15:59;22.60;76.10
2995;DHT22;35277;49.890;8.222;2023-11-21T10:18:32;22.60;76.00
2995;DHT22;35277;49.890;8.222;2023-11-21T10:21:01;22.60;76.10
2995;DHT22;35277;49.890;8.222;2023-11-21T10:23:32;22.60;76.00
2995;DHT22;35277;49.890;8.222;2023-11-21T10:26:00;22.60;75.90
2995;DHT22;35277;49.890;8.222;2023-11-21T10:28:40;22.60;75.70
2995;DHT22;35277;49.890;8.222;2023-11-21T10:31:08;22.60;75.50
2995;DHT22;35277;49.890;8.222;2023-11-21T10:33:36;22.60;75.40
2995;DHT22;35277;49.890;8.222;2023-11-21T10:36:04;22.60;75.40
2995;DHT22;35277;49.890;8.222;2023-11-21T10:38:42;22.60;75.40
2995;DHT22;35277;49.890;8.222;2023-11-21T10:41:12;22.60;75.30
2995;DHT22;35277;49.890;8.222;2023-11-21T10:43:43;22.60;75.20
2995;DHT22;35277;49.890;8.222;2023-11-21T10:46:11;22.60;75.30
2995;DHT22;35277;49.890;8.222;2023-11-21T10:48:41;22.60;75.40
2995;DHT22;35277;49.890;8.222;2023-11-21T10:51:09;22.60;75.60
2995;DHT22;35277;49.890;8.222;2023-11-21T10:53:42;22.60;76.80
2995;DHT22;35277;49.890;8.222;2023-11-21T10:56:14;22.60;76.50
2995;DHT22;35277;49.890;8.222;2023-11-21T10:58:44;22.60;76.90
2995;DHT22;35277;49.890;8.222;2023-11-21T11:01:12;22.70;77.20
2995;DHT22;35277;49.890;8.222;2023-11-21T11:03:43;22.70;77.40
2995;DHT22;35277;49.890;8.222;2023-11-21T11:06:12;22.70;77.80
2995;DHT22;35277;49.890;8.222;2023-11-21T11:08:42;22.70;77.70
2995;DHT22;35277;49.890;8.222;2023-11-21T11:11:12;22.70;77.70
2995;DHT22;35277;49.890;8.222;2023-11-21T11:13:43;22.70;77.70
2995;DHT22;35277;49.890;8.222;2023-11-21T11:16:13;22.80;77.70
2995;DHT22;35277;49.890;8.222;2023-11-21T11:18:44;22.80;77.70
2995;DHT22;35277;49.890;8.222;2023-11-21T11:21:24;22.80;77.50
2995;DHT22;35277;49.890;8.222;2023-11-21T11:24:06;22.80;77.40
2995;DHT22;35277;49.890;8.222;2023-11-21T11:26:45;22.90;77.20
2995;DHT22;35277;49.890;8.222;2023-11-21T11:29:21;22.90;76.70
2995;DHT22;35277;49.890;8.222;2023-11-21T11:31:59;23.00;76.30
2995;DHT22;35277;49.890;8.222;2023-11-21T11:34:34;23.00;75.80
2995;DHT22;35277;49.890;8.222;2023-11-21T11:37:12;23.00;75.60
2995;DHT22;35277;49.890;8.222;2023-11-21T11:39:41;23.00;75.40
2995;DHT22;35277;49.890;8.222;2023-11-21T11:42:13;23.00;75.20
2995;DHT22;35277;49.890;8.222;2023-11-21T11:44:48;23.00;75.10
2995;DHT22;35277;49.890;8.222;2023-11-21T11:47:22;23.00;74.70
2995;DHT22;35277;49.890;8.222;2023-11-21T11:49:58;23.00;74.50
2995;DHT22;35277;49.890;8.222;2023-11-21T11:52:42;23.00;74.20
2995;DHT22;35277;49.890;8.222;2023-11-21T11:55:11;23.00;74.00
2995;DHT22;35277;49.890;8.222;2023-11-21T11:57:40;23.00;73.70
2995;DHT22;35277;49.890;8.222;2023-11-21T12:00:19;22.90;73.30
2995;DHT22;35277;49.890;8.222;2023-11-21T12:02:52;22.90;73.00
2995;DHT22;35277;49.890;8.222;2023-11-21T12:05:21;22.90;72.80
2995;DHT22;35277;49.890;8.222;2023-11-21T12:07:52;22.90;72.60
2995;DHT22;35277;49.890;8.222;2023-11-21T12:10:22;22.90;72.40
2995;DHT22;35277;49.890;8.222;2023-11-21T12:12:52;22.90;72.30
2995;DHT22;35277;49.890;8.222;2023-11-21T12:15:21;22.80;72.10
2995;DHT22;35277;49.890;8.222;2023-11-21T12:17:49;22.80;72.10
2995;DHT22;35277;49.890;8.222;2023-11-21T12:20:19;22.80;72.10
2995;DHT22;35277;49.890;8.222;2023-11-21T12:22:49;22.80;72.00
2995;DHT22;35277;49.890;8.222;2023-11-21T12:25:19;22.80;72.00
2995;DHT22;35277;49.890;8.222;2023-11-21T12:27:49;22.80;72.00
2995;DHT22;35277;49.890;8.222;2023-11-21T12:30:18;22.80;72.00
2995;DHT22;35277;49.890;8.222;2023-11-21T12:32:49;22.80;72.00
2995;DHT22;35277;49.890;8.222;2023-11-21T12:35:18;22.80;72.00
2995;DHT22;35277;49.890;8.222;2023-11-21T12:37:48;22.80;72.10
2995;DHT22;35277;49.890;8.222;2023-11-21T12:40:18;22.80;72.00
2995;DHT22;35277;49.890;8.222;2023-11-21T12:42:48;22.80;72.00
2995;DHT22;35277;49.890;8.222;2023-11-21T12:45:20;22.80;72.00
2995;DHT22;35277;49.890;8.222;2023-11-21T12:47:50;22.80;72.10
2995;DHT22;35277;49.890;8.222;2023-11-21T12:50:21;22.80;72.10
2995;DHT22;35277;49.890;8.222;2023-11-21T12:52:51;22.80;72.10
2995;DHT22;35277;49.890;8.222;2023-11-21T12:55:22;22.80;72.10
2995;DHT22;35277;49.890;8.222;2023-11-21T12:57:52;22.80;72.10
2995;DHT22;35277;49.890;8.222;2023-11-21T13:00:28;22.80;72.10
2995;DHT22;35277;49.890;8.222;2023-11-21T13:02:57;22.80;72.20
2995;DHT22;35277;49.890;8.222;2023-11-21T13:05:26;22.80;72.20
2995;DHT22;35277;49.890;8.222;2023-11-21T13:07:56;22.80;72.20
2995;DHT22;35277;49.890;8.222;2023-11-21T13:10:27;22.80;72.20
2995;DHT22;35277;49.890;8.222;2023-11-21T13:12:58;22.80;72.20
2995;DHT22;35277;49.890;8.222;2023-11-21T13:15:27;22.80;72.30
2995;DHT22;35277;49.890;8.222;2023-11-21T13:17:58;22.80;72.30
2995;DHT22;35277;49.890;8.222;2023-11-21T13:20:26;22.80;72.30
2995;DHT22;35277;49.890;8.222;2023-11-21T13:22:55;22.80;72.30
2995;DHT22;35277;49.890;8.222;2023-11-21T13:25:27;22.80;72.30
2995;DHT22;35277;49.890;8.222;2023-11-21T13:27:55;22.80;72.30
2995;DHT22;35277;49.890;8.222;2023-11-21T13:30:24;22.80;72.30
2995;DHT22;35277;49.890;8.222;2023-11-21T13:32:54;22.80;72.30
2995;DHT22;35277;49.890;8.222;2023-11-21T13:35:24;22.80;72.30
2995;DHT22;35277;49.890;8.222;2023-11-21T13:38:03;22.80;72.30
2995;DHT22;35277;49.890;8.222;2023-11-21T13:40:34;22.80;72.30
2995;DHT22;35277;49.890;8.222;2023-11-21T13:43:09;22.80;72.20
2995;DHT22;35277;49.890;8.222;2023-11-21T13:45:37;22.80;72.20
2995;DHT22;35277;49.890;8.222;2023-11-21T13:48:07;22.80;72.20
2995;DHT22;35277;49.890;8.222;2023-11-21T13:50:37;22.80;72.20
2995;DHT22;35277;49.890;8.222;2023-11-21T13:53:05;22.80;72.20
2995;DHT22;35277;49.890;8.222;2023-11-21T13:55:45;22.80;72.20
2995;DHT22;35277;49.890;8.222;2023-11-21T13:58:14;22.80;72.10
2995;DHT22;35277;49.890;8.222;2023-11-21T14:00:48;22.80;72.10
2995;DHT22;35277;49.890;8.222;2023-11-21T14:03:23;22.80;72.10
2995;DHT22;35277;49.890;8.222;2023-11-21T14:05:59;22.80;72.10
2995;DHT22;35277;49.890;8.222;2023-11-21T14:08:34;22.80;72.10
2995;DHT22;35277;49.890;8.222;2023-11-21T14:11:03;22.80;72.00
2995;DHT22;35277;49.890;8.222;2023-11-21T14:13:33;22.80;72.00
2995;DHT22;35277;49.890;8.222;2023-11-21T14:16:01;22.90;72.00
2995;DHT22;35277;49.890;8.222;2023-11-21T14:18:29;22.80;71.90
2995;DHT22;35277;49.890;8.222;2023-11-21T14:21:03;22.90;72.00
2995;DHT22;35277;49.890;8.222;2023-11-21T14:23:32;22.90;72.10
2995;DHT22;35277;49.890;8.222;2023-11-21T14:26:04;22.90;72.20
2995;DHT22;35277;49.890;8.222;2023-11-21T14:28:33;22.90;72.20
2995;DHT22;35277;49.890;8.222;2023-11-21T14:31:01;22.90;72.30
2995;DHT22;35277;49.890;8.222;2023-11-21T14:33:29;22.90;72.30
2995;DHT22;35277;49.890;8.222;2023-11-21T14:35:57;22.90;72.20
2995;DHT22;35277;49.890;8.222;2023-11-21T14:38:25;22.90;72.10
2995;DHT22;35277;49.890;8.222;2023-11-21T14:40:54;22.90;72.00
2995;DHT22;35277;49.890;8.222;2023-11-21T14:43:25;22.90;71.80
2995;DHT22;35277;49.890;8.222;2023-11-21T14:45:56;22.90;71.70
2995;DHT22;35277;49.890;8.222;2023-11-21T14:48:26;22.90;71.50
2995;DHT22;35277;49.890;8.222;2023-11-21T14:51:08;22.90;71.50
2995;DHT22;35277;49.890;8.222;2023-11-21T14:53:54;22.90;71.40
2995;DHT22;35277;49.890;8.222;2023-11-21T14:56:21;23.00;71.50
2995;DHT22;35277;49.890;8.222;2023-11-21T14:58:54;23.00;71.50
2995;DHT22;35277;49.890;8.222;2023-11-21T15:01:23;23.00;71.50
2995;DHT22;35277;49.890;8.222;2023-11-21T15:04:09;22.90;72.30
2995;DHT22;35277;49.890;8.222;2023-11-21T15:06:41;23.00;71.50
2995;DHT22;35277;49.890;8.222;2023-11-21T15:09:10;22.90;71.40
2995;DHT22;35277;49.890;8.222;2023-11-21T15:12:05;23.00;71.50
2995;DHT22;35277;49.890;8.222;2023-11-21T15:14:46;23.00;71.50
2995;DHT22;35277;49.890;8.222;2023-11-21T15:17:16;23.00;71.50
2995;DHT22;35277;49.890;8.222;2023-11-21T15:19:49;22.90;71.40
2995;DHT22;35277;49.890;8.222;2023-11-21T15:22:17;23.00;71.50
2995;DHT22;35277;49.890;8.222;2023-11-21T15:24:45;22.90;71.40
2995;DHT22;35277;49.890;8.222;2023-11-21T15:27:16;23.00;71.50
2995;DHT22;35277;49.890;8.222;2023-11-21T15:29:46;23.00;71.50
2995;DHT22;35277;49.890;8.222;2023-11-21T15:32:16;22.90;71.40
2995;DHT22;35277;49.890;8.222;2023-11-21T15:34:44;23.00;71.50
2995;DHT22;35277;49.890;8.222;2023-11-21T15:37:13;23.00;71.60
2995;DHT22;35277;49.890;8.222;2023-11-21T15:39:41;23.00;71.60
2995;DHT22;35277;49.890;8.222;2023-11-21T15:42:09;23.00;71.60
2995;DHT22;35277;49.890;8.222;2023-11-21T15:44:37;23.00;71.60
2995;DHT22;35277;49.890;8.222;2023-11-21T15:47:07;23.00;71.70
2995;DHT22;35277;49.890;8.222;2023-11-21T15:49:36;23.00;71.60
2995;DHT22;35277;49.890;8.222;2023-11-21T15:52:05;23.00;71.60
2995;DHT22;35277;49.890;8.222;2023-11-21T15:54:34;23.00;71.60
2995;DHT22;35277;49.890;8.222;2023-11-21T15:57:02;23.00;71.60
2995;DHT22;35277;49.890;8.222;2023-11-21T15:59:31;23.00;71.70